Time;durP1;ratioP1;P1;durP2;ratioP2;P2;SDS_P1;SDS_P2;PMS_P1;PMS_P2;Temp;Humidity;BMP_temperature;BMP_pressure;BME280_temperature;BME280_humidity;BME280_pressure;Samples;Min_cycle;Max_cycle;Signal;HPM_P1;HPM_P2
2022/12/06 00:00:40;;;;;;;1.38;0.73;;;;;;;0.36;100.00;96679.66;4976290;28;20558;-74
2022/12/06 00:03:25;;;;;;;1.95;1.02;;;;;;;0.30;100.00;96669.03;4973708;28;20631;-74
2022/12/06 00:06:14;;;;;;;1.20;0.70;;;;;;;0.32;100.00;96674.94;4974530;28;20049;-74
2022/12/06 00:09:00;;;;;;;1.20;0.60;;;;;;;0.33;100.00;96666.88;4945771;28;20277;-73
2022/12/06 00:11:46;;;;;;;2.10;1.23;;;;;;;0.43;100.00;96661.34;4978889;28;20045;-74
2022/12/06 00:14:33;;;;;;;0.75;0.40;;;;;;;0.47;100.00;96662.63;4962226;28;20100;-74
2022/12/06 00:17:19;;;;;;;0.85;0.43;;;;;;;0.46;100.00;96668.84;4973982;28;20140;-71
2022/12/06 00:20:06;;;;;;;2.20;1.25;;;;;;;0.44;100.00;96662.97;4978054;28;20038;-71
2022/12/06 00:22:51;;;;;;;0.85;0.40;;;;;;;0.43;100.00;96662.16;4971921;28;20070;-73
2022/12/06 00:25:37;;;;;;;0.75;0.40;;;;;;;0.39;100.00;96660.88;4978676;28;20038;-75
2022/12/06 00:28:23;;;;;;;0.77;0.40;;;;;;;0.47;100.00;96667.88;4973807;28;20136;-74
2022/12/06 00:31:13;;;;;;;0.77;0.40;;;;;;;0.49;100.00;96663.25;4963021;28;20137;-73
2022/12/06 00:34:00;;;;;;;0.35;0.30;;;;;;;0.48;100.00;96654.53;4974975;28;20043;-73
2022/12/06 00:36:49;;;;;;;0.63;0.40;;;;;;;0.51;100.00;96653.34;4976551;28;20475;-74
2022/12/06 00:39:34;;;;;;;1.13;0.60;;;;;;;0.52;100.00;96645.25;4977292;28;20459;-71
2022/12/06 00:42:20;;;;;;;1.17;0.60;;;;;;;0.56;100.00;96651.00;4961548;28;20272;-73
2022/12/06 00:45:07;;;;;;;0.30;0.25;;;;;;;0.56;100.00;96653.63;4975983;28;20168;-74
2022/12/06 00:47:53;;;;;;;0.20;0.20;;;;;;;0.51;100.00;96645.44;4969139;28;20039;-76
2022/12/06 00:50:39;;;;;;;0.30;0.30;;;;;;;0.52;100.00;96645.25;4954170;28;20077;-76
2022/12/06 00:53:25;;;;;;;0.17;0.17;;;;;;;0.49;100.00;96642.19;4975033;28;20240;-75
2022/12/06 00:56:11;;;;;;;0.28;0.28;;;;;;;0.51;100.00;96650.72;4976510;28;20582;-73
2022/12/06 00:58:57;;;;;;;0.20;0.20;;;;;;;0.40;100.00;96633.56;4973741;28;20041;-75
2022/12/06 01:01:43;;;;;;;0.22;0.22;;;;;;;0.44;100.00;96642.72;4979261;28;20088;-75
2022/12/06 01:04:29;;;;;;;0.43;0.30;;;;;;;0.46;100.00;96639.91;4960933;28;20049;-75
2022/12/06 01:07:15;;;;;;;0.20;0.20;;;;;;;0.46;100.00;96645.16;4974310;28;20538;-72
2022/12/06 01:10:02;;;;;;;0.47;0.30;;;;;;;0.47;100.00;96636.28;4975732;28;20054;-76
2022/12/06 01:12:48;;;;;;;0.20;0.20;;;;;;;0.49;100.00;96636.91;4975432;28;20042;-75
2022/12/06 01:15:37;;;;;;;0.20;0.20;;;;;;;0.47;100.00;96647.63;4974832;28;20136;-76
2022/12/06 01:18:23;;;;;;;0.10;0.10;;;;;;;0.43;100.00;96637.63;4973972;28;20042;-76
2022/12/06 01:21:12;;;;;;;0.20;0.20;;;;;;;0.42;100.00;96638.63;4972650;28;20046;-76
2022/12/06 01:23:58;;;;;;;0.20;0.20;;;;;;;0.41;100.00;96637.00;4975808;28;20666;-74
2022/12/06 01:26:44;;;;;;;0.30;0.25;;;;;;;0.41;100.00;96648.34;4976023;28;20056;-75
2022/12/06 01:29:30;;;;;;;0.77;0.45;;;;;;;0.45;100.00;96644.34;4975309;28;20770;-76
2022/12/06 01:32:16;;;;;;;0.30;0.20;;;;;;;0.47;100.00;96638.94;4972681;28;20045;-75
2022/12/06 01:35:02;;;;;;;0.20;0.20;;;;;;;0.40;100.00;96641.47;4975415;28;20041;-75
2022/12/06 01:37:48;;;;;;;0.75;0.40;;;;;;;0.39;100.00;96642.47;4965019;28;20124;-75
2022/12/06 01:40:45;;;;;;;0.35;0.30;;;;;;;0.32;100.00;96641.53;4976439;28;20112;-72
2022/12/06 01:43:39;;;;;;;0.63;0.40;;;;;;;0.20;100.00;96641.16;4974805;28;20096;-75
2022/12/06 01:46:34;;;;;;;0.20;0.20;;;;;;;0.17;100.00;96638.06;4972906;28;20061;-76
2022/12/06 01:49:28;;;;;;;0.77;0.43;;;;;;;0.15;100.00;96642.66;4971306;28;20132;-74
2022/12/06 01:52:15;;;;;;;0.73;0.40;;;;;;;0.15;100.00;96643.47;4975486;28;20047;-75
2022/12/06 01:55:03;;;;;;;0.55;0.30;;;;;;;0.15;100.00;96646.13;4976524;28;20145;-75
2022/12/06 01:57:51;;;;;;;0.40;0.32;;;;;;;0.13;100.00;96640.22;4974288;28;20065;-74
2022/12/06 02:00:37;;;;;;;0.55;0.30;;;;;;;0.19;100.00;96642.16;4975158;28;20049;-71
2022/12/06 02:03:26;;;;;;;0.35;0.30;;;;;;;0.25;100.00;96640.63;4972000;28;20042;-72
2022/12/06 02:06:12;;;;;;;1.10;0.60;;;;;;;0.24;100.00;96638.97;4974590;28;20053;-71
2022/12/06 02:09:00;;;;;;;0.82;0.43;;;;;;;0.34;100.00;96642.16;4975797;28;20045;-75
2022/12/06 02:11:47;;;;;;;0.82;0.40;;;;;;;0.39;100.00;96631.94;4974347;28;20083;-73
2022/12/06 02:14:34;;;;;;;1.10;0.57;;;;;;;0.32;100.00;96628.38;4974653;28;20034;-73
2022/12/06 02:17:39;;;;;;;1.05;0.50;;;;;;;0.40;100.00;96630.09;4977003;28;20157;-71
2022/12/06 02:20:39;;;;;;;0.32;0.30;;;;;;;0.38;100.00;96639.97;4974960;28;20047;-71
2022/12/06 02:23:36;;;;;;;0.20;0.20;;;;;;;0.37;100.00;96635.72;4965136;28;20232;-75
2022/12/06 02:26:25;;;;;;;0.28;0.28;;;;;;;0.37;100.00;96636.53;4974336;28;20057;-74
2022/12/06 02:29:36;;;;;;;0.32;0.30;;;;;;;0.33;100.00;96635.28;4972909;28;20601;-72
2022/12/06 02:32:39;;;;;;;0.20;0.20;;;;;;;0.26;100.00;96631.72;4971992;28;20062;-72
2022/12/06 02:35:38;;;;;;;0.30;0.30;;;;;;;0.33;100.00;96635.28;4975000;28;20646;-73
2022/12/06 02:38:34;;;;;;;0.30;0.30;;;;;;;0.34;100.00;96633.44;4973665;28;20044;-74
2022/12/06 02:41:26;;;;;;;0.20;0.20;;;;;;;0.35;100.00;96633.28;4975979;28;20049;-73
2022/12/06 02:44:20;;;;;;;0.20;0.20;;;;;;;0.33;100.00;96621.28;4973775;28;20081;-71
2022/12/06 02:47:10;;;;;;;0.50;0.30;;;;;;;0.36;100.00;96629.63;4974957;28;20069;-70
2022/12/06 02:49:59;;;;;;;0.20;0.20;;;;;;;0.38;100.00;96624.19;4974138;28;20057;-73
2022/12/06 02:52:50;;;;;;;0.20;0.20;;;;;;;0.37;100.00;96626.00;4976155;28;20720;-72
2022/12/06 02:55:36;;;;;;;0.20;0.20;;;;;;;0.39;100.00;96620.56;4973822;28;20636;-71
2022/12/06 02:58:22;;;;;;;0.20;0.20;;;;;;;0.39;100.00;96617.91;4973406;28;20123;-72
2022/12/06 03:01:19;;;;;;;0.20;0.20;;;;;;;0.41;100.00;96621.22;4972897;28;20081;-74
2022/12/06 03:04:07;;;;;;;0.20;0.20;;;;;;;0.37;100.00;96615.47;4970799;28;20038;-73
2022/12/06 03:07:03;;;;;;;0.20;0.20;;;;;;;0.40;100.00;96620.38;4972879;28;20360;-73
2022/12/06 03:10:07;;;;;;;0.20;0.20;;;;;;;0.46;100.00;96621.47;4951222;28;20049;-72
2022/12/06 03:12:58;;;;;;;0.20;0.20;;;;;;;0.43;100.00;96619.19;4972762;28;20253;-74
2022/12/06 03:15:57;;;;;;;0.20;0.20;;;;;;;0.47;100.00;96618.69;4974977;28;20161;-73
2022/12/06 03:18:48;;;;;;;0.25;0.25;;;;;;;0.45;100.00;96612.75;4972568;28;20473;-74
2022/12/06 03:21:46;;;;;;;0.20;0.20;;;;;;;0.46;100.00;96611.75;4972859;28;20968;-72
2022/12/06 03:24:36;;;;;;;0.20;0.20;;;;;;;0.51;100.00;96609.41;4963392;28;20464;-72
2022/12/06 03:27:23;;;;;;;0.20;0.20;;;;;;;0.50;100.00;96609.59;4973101;28;20042;-71
2022/12/06 03:30:12;;;;;;;0.20;0.20;;;;;;;0.51;100.00;96606.75;4975230;28;20542;-76
2022/12/06 03:32:58;;;;;;;0.20;0.20;;;;;;;0.49;100.00;96607.94;4974050;28;20115;-74
2022/12/06 03:35:46;;;;;;;0.20;0.20;;;;;;;0.48;100.00;96598.41;4963667;28;20106;-73
2022/12/06 03:38:39;;;;;;;0.20;0.20;;;;;;;0.53;100.00;96609.22;4969267;28;20042;-72
2022/12/06 03:41:30;;;;;;;0.20;0.20;;;;;;;0.53;100.00;96609.22;4975878;28;20699;-72
2022/12/06 03:44:16;;;;;;;0.30;0.30;;;;;;;0.53;100.00;96602.13;4973175;28;20038;-73
2022/12/06 03:47:18;;;;;;;0.40;0.30;;;;;;;0.59;100.00;96602.41;4972920;28;20149;-73
2022/12/06 03:50:12;;;;;;;0.50;0.30;;;;;;;0.59;100.00;96599.78;4972860;28;20635;-72
2022/12/06 03:53:00;;;;;;;1.27;0.52;;;;;;;0.58;100.00;96591.06;4973603;28;20059;-73
2022/12/06 03:55:45;;;;;;;0.50;0.30;;;;;;;0.62;100.00;96592.31;4955880;28;20056;-73
2022/12/06 03:58:31;;;;;;;0.73;0.35;;;;;;;0.58;100.00;96591.06;4975825;28;20133;-72
2022/12/06 04:01:20;;;;;;;1.33;0.60;;;;;;;0.59;100.00;96595.31;4962852;28;20818;-71
2022/12/06 04:04:06;;;;;;;1.00;0.50;;;;;;;0.54;100.00;96581.88;4976026;28;20042;-74
2022/12/06 04:06:52;;;;;;;0.50;0.30;;;;;;;0.63;100.00;96599.25;4961355;28;20076;-73
2022/12/06 04:10:01;;;;;;;1.33;0.60;;;;;;;0.62;100.00;96592.31;4973965;28;20136;-73
2022/12/06 04:12:59;;;;;;;0.38;0.30;;;;;;;0.69;100.00;96587.94;4977743;28;20046;-73
2022/12/06 04:15:46;;;;;;;1.30;0.65;;;;;;;0.70;100.00;96584.34;4977930;28;20046;-74
2022/12/06 04:18:31;;;;;;;0.25;0.25;;;;;;;0.62;100.00;96578.31;4975427;28;20114;-72
2022/12/06 04:24:18;;;;;;;0.57;0.30;;;;;;;0.63;100.00;96578.16;4975729;28;20462;-73
2022/12/06 04:39:23;;;;;;;0.25;0.25;;;;;;;0.39;100.00;96583.69;4972298;28;20085;-73
2022/12/06 04:45:14;;;;;;;0.20;0.20;;;;;;;0.37;100.00;96580.44;4974650;28;20049;-73
2022/12/06 04:48:00;;;;;;;0.20;0.20;;;;;;;0.32;100.00;96573.09;4977765;28;20046;-75
2022/12/06 04:50:49;;;;;;;0.68;0.38;;;;;;;0.35;100.00;96585.06;4964767;28;20449;-73
2022/12/06 04:53:35;;;;;;;0.70;0.43;;;;;;;0.32;100.00;96588.06;4972248;28;20146;-71
2022/12/06 04:56:21;;;;;;;1.42;0.77;;;;;;;0.28;100.00;96593.69;4977282;28;20384;-73
2022/12/06 04:59:07;;;;;;;1.70;0.82;;;;;;;0.31;100.00;96583.78;4973577;28;20038;-73
2022/12/06 05:01:54;;;;;;;1.90;0.90;;;;;;;0.35;100.00;96588.50;4977865;28;20142;-73
2022/12/06 05:04:40;;;;;;;2.10;1.10;;;;;;;0.28;100.00;96591.06;4977751;28;20042;-74
2022/12/06 05:07:26;;;;;;;1.67;0.90;;;;;;;0.26;100.00;96593.06;4964972;28;20233;-74
2022/12/06 05:10:12;;;;;;;1.92;1.05;;;;;;;0.23;100.00;96585.53;4975883;28;20557;-74
2022/12/06 05:12:59;;;;;;;1.92;1.13;;;;;;;0.18;100.00;96585.25;4976182;28;20053;-72
2022/12/06 05:16:02;;;;;;;2.10;1.13;;;;;;;0.14;100.00;96589.22;4978032;28;20048;-73
2022/12/06 05:18:48;;;;;;;3.55;1.92;;;;;;;0.16;100.00;96587.25;4964349;28;20034;-71
2022/12/06 05:21:33;;;;;;;1.88;1.00;;;;;;;0.19;100.00;96588.69;4949730;28;20042;-73
2022/12/06 05:24:20;;;;;;;3.95;2.35;;;;;;;0.21;100.00;96590.13;4977722;28;20053;-73
2022/12/06 05:27:06;;;;;;;2.85;1.73;;;;;;;0.21;100.00;96587.50;4970225;28;20042;-75
2022/12/06 05:29:52;;;;;;;2.72;1.52;;;;;;;0.23;100.00;96582.06;4977776;28;20058;-75
2022/12/06 05:32:39;;;;;;;2.80;1.60;;;;;;;0.18;100.00;96574.72;4972752;28;20189;-74
2022/12/06 05:35:25;;;;;;;2.88;1.85;;;;;;;0.16;100.00;96571.47;4976790;28;20450;-74
2022/12/06 05:38:11;;;;;;;2.97;1.50;;;;;;;0.21;100.00;96576.97;4976644;28;20703;-74
2022/12/06 05:40:57;;;;;;;2.70;1.50;;;;;;;0.13;100.00;96582.31;4976739;28;20038;-72
2022/12/06 05:43:43;;;;;;;3.20;1.92;;;;;;;0.15;100.00;96575.06;4964102;28;20041;-71
2022/12/06 05:46:29;;;;;;;2.88;1.63;;;;;;;0.14;100.00;96583.13;4974520;28;20477;-72
2022/12/06 05:49:14;;;;;;;3.35;1.70;;;;;;;0.11;100.00;96584.31;4971333;28;20660;-76
2022/12/06 05:52:03;;;;;;;2.80;1.63;;;;;;;0.05;100.00;96592.13;4973427;28;20069;-73
2022/12/06 05:54:49;;;;;;;2.88;1.67;;;;;;;0.05;100.00;96585.03;4976408;28;20046;-75
2022/12/06 05:57:34;;;;;;;2.85;1.60;;;;;;;0.05;100.00;96587.66;4970801;28;20663;-72
2022/12/06 06:00:21;;;;;;;3.53;2.10;;;;;;;0.01;100.00;96583.78;4974772;28;20065;-75
2022/12/06 06:03:07;;;;;;;2.35;1.42;;;;;;;-0.04;100.00;96580.84;4975353;28;20515;-75
2022/12/06 06:05:57;;;;;;;3.72;2.38;;;;;;;-0.02;100.00;96577.03;4964028;28;20053;-75
2022/12/06 06:08:42;;;;;;;2.78;1.45;;;;;;;0.06;100.00;96576.13;4974670;28;20104;-73
2022/12/06 06:11:29;;;;;;;3.28;1.90;;;;;;;0.00;100.00;96576.88;4973967;28;20378;-74
2022/12/06 06:14:14;;;;;;;2.53;1.40;;;;;;;0.02;100.00;96585.41;4960510;28;20113;-75
2022/12/06 06:17:00;;;;;;;2.25;1.25;;;;;;;0.04;100.00;96575.50;4978745;28;20425;-74
2022/12/06 06:19:46;;;;;;;3.60;2.13;;;;;;;0.05;100.00;96566.63;4975448;28;20046;-75
2022/12/06 06:22:36;;;;;;;2.20;1.00;;;;;;;0.11;100.00;96580.88;4973004;28;20327;-74
2022/12/06 06:25:23;;;;;;;2.65;1.42;;;;;;;0.07;100.00;96584.84;4975261;28;20065;-74
2022/12/06 06:28:08;;;;;;;3.47;1.80;;;;;;;0.09;100.00;96585.50;4975189;28;20069;-74
2022/12/06 06:30:54;;;;;;;3.67;1.85;;;;;;;0.02;100.00;96572.25;4625771;28;10000792;-75
2022/12/06 06:33:40;;;;;;;3.20;1.60;;;;;;;0.10;100.00;96587.97;4972003;28;20374;-73
2022/12/06 06:36:26;;;;;;;3.22;1.92;;;;;;;0.10;100.00;96581.88;4971806;28;20392;-72
2022/12/06 06:39:12;;;;;;;3.35;1.90;;;;;;;0.08;100.00;96592.59;4972215;28;20060;-72
2022/12/06 06:41:58;;;;;;;2.75;1.50;;;;;;;0.10;100.00;96593.22;4961845;28;20434;-75
2022/12/06 06:44:44;;;;;;;2.45;1.38;;;;;;;0.07;100.00;96592.75;4974318;28;20057;-73
2022/12/06 06:47:30;;;;;;;2.78;1.67;;;;;;;0.13;100.00;96592.84;4974604;28;20104;-73
2022/12/06 06:50:16;;;;;;;2.25;1.20;;;;;;;0.12;100.00;96596.47;4975294;28;20050;-74
2022/12/06 06:53:02;;;;;;;2.63;1.48;;;;;;;0.12;100.00;96596.47;4972624;28;20494;-74
2022/12/06 06:55:48;;;;;;;4.85;2.83;;;;;;;0.16;100.00;96596.97;4972236;28;20041;-72
2022/12/06 06:58:34;;;;;;;3.15;1.75;;;;;;;0.15;100.00;96595.28;4971858;28;20068;-74
2022/12/06 07:01:22;;;;;;;3.60;1.90;;;;;;;0.25;100.00;96607.22;4972455;28;20348;-75
2022/12/06 07:04:08;;;;;;;6.10;3.72;;;;;;;0.26;100.00;96603.59;4972442;28;20160;-75
2022/12/06 07:06:54;;;;;;;1.95;1.08;;;;;;;0.21;100.00;96605.13;4960036;28;20042;-75
2022/12/06 07:09:40;;;;;;;3.13;1.90;;;;;;;0.22;100.00;96610.19;4974311;28;20125;-74
2022/12/06 07:12:26;;;;;;;4.07;2.25;;;;;;;0.24;100.00;96605.59;4973870;28;20103;-71
2022/12/06 07:15:12;;;;;;;3.08;1.75;;;;;;;0.24;100.00;96604.78;4973154;28;20045;-74
2022/12/06 07:17:58;;;;;;;4.20;2.65;;;;;;;0.25;100.00;96599.31;4971687;28;20042;-74
2022/12/06 07:20:45;;;;;;;4.57;3.08;;;;;;;0.32;100.00;96601.25;4975098;28;20472;-72
2022/12/06 07:23:32;;;;;;;3.63;1.90;;;;;;;0.24;100.00;96604.78;4959976;28;20117;-73
2022/12/06 07:26:21;;;;;;;2.38;1.20;;;;;;;0.27;100.00;96594.69;4964034;28;20050;-74
2022/12/06 07:29:06;;;;;;;2.35;1.40;;;;;;;0.24;100.00;96591.59;4966508;28;20454;-71
2022/12/06 07:31:52;;;;;;;4.97;3.00;;;;;;;0.33;100.00;96603.69;4977806;28;20507;-74
2022/12/06 07:34:38;;;;;;;3.42;1.90;;;;;;;0.35;100.00;96606.13;4975995;28;20092;-72
2022/12/06 07:37:24;;;;;;;5.03;2.85;;;;;;;0.41;100.00;96602.78;4973102;28;20046;-71
2022/12/06 07:40:13;;;;;;;4.53;2.28;;;;;;;0.47;100.00;96600.25;4978895;28;20040;-71
2022/12/06 07:46:09;;;;;;;4.38;2.40;;;;;;;0.44;100.00;96600.59;4978396;28;20045;-72
2022/12/06 07:48:55;;;;;;;3.50;1.92;;;;;;;0.43;100.00;96598.97;4977013;28;20053;-74
2022/12/06 07:51:42;;;;;;;4.30;2.40;;;;;;;0.49;100.00;96614.03;4979044;28;20141;-73
2022/12/06 07:54:28;;;;;;;2.50;1.27;;;;;;;0.51;100.00;96604.13;4978025;28;20054;-70
2022/12/06 07:57:14;;;;;;;3.75;1.80;;;;;;;0.58;100.00;96609.50;4978245;28;20476;-73
2022/12/06 08:00:00;;;;;;;4.53;2.70;;;;;;;0.55;100.00;96607.22;4978260;28;20629;-73
2022/12/06 08:02:46;;;;;;;3.45;1.90;;;;;;;0.65;100.00;96602.50;4976179;28;20084;-75
2022/12/06 08:05:32;;;;;;;3.42;1.92;;;;;;;0.69;100.00;96605.56;4962309;28;20046;-73
2022/12/06 08:08:18;;;;;;;1.85;1.00;;;;;;;0.68;100.00;96604.75;4978458;28;20130;-73
2022/12/06 08:11:07;;;;;;;3.25;1.73;;;;;;;0.68;100.00;96606.56;4977680;28;20155;-72
2022/12/06 08:13:53;;;;;;;2.95;1.40;;;;;;;0.72;100.00;96608.66;4978083;28;20460;-74
2022/12/06 08:16:41;;;;;;;4.68;2.70;;;;;;;0.54;100.00;96602.94;4979486;28;20046;-74
2022/12/06 08:19:26;;;;;;;3.38;1.77;;;;;;;0.46;100.00;96603.03;4979971;28;20045;-74
2022/12/06 08:22:12;;;;;;;3.00;1.75;;;;;;;0.66;100.00;96603.31;4980006;28;20069;-73
2022/12/06 08:24:58;;;;;;;3.92;2.08;;;;;;;0.66;100.00;96608.59;4977698;28;20571;-72
2022/12/06 08:27:44;;;;;;;3.38;2.03;;;;;;;0.81;100.00;96612.03;4979983;28;20060;-74
2022/12/06 08:30:30;;;;;;;4.13;2.20;;;;;;;0.84;100.00;96609.81;4978009;28;20038;-74
2022/12/06 08:33:16;;;;;;;5.25;3.13;;;;;;;0.80;100.00;96611.22;4975846;28;20092;-74
2022/12/06 08:36:07;;;;;;;4.15;2.50;;;;;;;0.84;100.00;96628.25;4979943;28;20038;-74
2022/12/06 08:38:54;;;;;;;2.63;1.45;;;;;;;0.86;100.00;96628.09;4977902;28;20046;-74
2022/12/06 08:41:56;;;;;;;4.88;2.70;;;;;;;0.94;100.00;96628.00;4975814;28;20596;-73
2022/12/06 08:44:42;;;;;;;3.65;1.90;;;;;;;0.99;100.00;96624.81;4977543;28;20153;-75
2022/12/06 08:47:28;;;;;;;3.20;1.88;;;;;;;0.90;100.00;96613.56;4975734;28;20061;-75
2022/12/06 08:50:14;;;;;;;3.60;1.98;;;;;;;0.90;100.00;96625.91;4956339;28;20057;-76
2022/12/06 08:53:00;;;;;;;3.65;2.05;;;;;;;0.83;100.00;96621.38;4961899;28;20054;-77
2022/12/06 08:55:54;;;;;;;4.40;2.65;;;;;;;0.95;100.00;96621.72;4965127;28;20042;-74
2022/12/06 08:58:40;;;;;;;2.70;1.50;;;;;;;0.94;100.00;96627.19;4961272;28;20625;-74
2022/12/06 09:01:28;;;;;;;3.92;2.28;;;;;;;0.95;100.00;96623.56;4960010;28;20326;-76
2022/12/06 09:04:14;;;;;;;2.67;1.50;;;;;;;0.99;100.00;96624.81;4976466;28;20042;-73
2022/12/06 09:07:00;;;;;;;3.08;1.65;;;;;;;0.95;100.00;96632.28;4975241;28;20507;-73
2022/12/06 09:09:46;;;;;;;3.92;2.33;;;;;;;0.99;100.00;96632.72;4961715;28;20162;-72
2022/12/06 09:12:32;;;;;;;4.18;2.45;;;;;;;0.94;100.00;96640.38;4967987;28;20196;-74
2022/12/06 09:15:18;;;;;;;4.32;2.50;;;;;;;0.92;100.00;96640.53;4977170;28;20046;-74
2022/12/06 09:18:03;;;;;;;3.65;2.22;;;;;;;0.94;100.00;96645.63;4975872;28;20033;-74
2022/12/06 09:20:49;;;;;;;3.28;1.95;;;;;;;0.99;100.00;96646.69;4963753;28;20097;-74
2022/12/06 09:23:36;;;;;;;3.10;1.80;;;;;;;1.00;100.00;96653.59;4977523;28;20046;-71
2022/12/06 09:26:23;;;;;;;3.08;1.83;;;;;;;0.99;100.00;96646.69;4976946;28;20063;-74
2022/12/06 09:29:09;;;;;;;3.47;1.98;;;;;;;1.03;100.00;96647.97;4963783;28;20042;-75
2022/12/06 09:31:55;;;;;;;3.25;1.85;;;;;;;1.04;100.00;96648.78;4967424;28;20068;-72
2022/12/06 09:34:41;;;;;;;4.43;2.50;;;;;;;1.01;100.00;96644.72;4976207;28;20666;-74
2022/12/06 09:37:27;;;;;;;2.60;1.33;;;;;;;1.15;100.00;96655.41;4975233;28;20038;-74
2022/12/06 09:40:23;;;;;;;2.55;1.50;;;;;;;1.13;100.00;96660.88;4976102;28;20425;-73
2022/12/06 09:43:45;;;;;;;1.60;0.85;;;;;;;1.14;100.00;96648.50;4973882;28;20132;-74
2022/12/06 09:46:57;;;;;;;2.50;1.30;;;;;;;1.20;100.00;96659.13;4965355;28;20701;-75
2022/12/06 09:50:18;;;;;;;1.95;1.20;;;;;;;1.20;100.00;96659.13;4952237;28;20045;-75
2022/12/06 09:53:19;;;;;;;4.03;2.17;;;;;;;1.15;100.00;96656.22;4966001;28;20089;-75
2022/12/06 09:56:19;;;;;;;3.30;2.03;;;;;;;1.18;100.00;96650.59;4977903;28;20083;-73
2022/12/06 09:59:36;;;;;;;1.95;1.15;;;;;;;1.13;100.00;96657.41;4955907;28;20557;-73
2022/12/06 10:02:37;;;;;;;2.00;1.30;;;;;;;1.15;100.00;96652.75;4972005;28;20137;-73
2022/12/06 10:05:38;;;;;;;2.40;1.20;;;;;;;1.22;100.00;96657.13;4976519;28;20088;-74
2022/12/06 10:08:29;;;;;;;2.45;1.38;;;;;;;1.20;100.00;96648.59;4976002;28;20361;-74
2022/12/06 10:11:36;;;;;;;2.70;1.42;;;;;;;1.19;100.00;96644.31;4974408;28;20046;-75
2022/12/06 10:14:39;;;;;;;2.97;1.58;;;;;;;1.24;100.00;96641.94;4975244;28;20042;-75
2022/12/06 10:17:58;;;;;;;3.20;1.77;;;;;;;1.33;100.00;96638.19;4976177;28;20399;-72
2022/12/06 10:21:03;;;;;;;4.32;2.65;;;;;;;1.33;100.00;96651.38;4960710;28;20042;-74
2022/12/06 10:24:01;;;;;;;3.30;2.03;;;;;;;1.35;100.00;96646.72;4963451;28;20455;-75
2022/12/06 10:26:49;;;;;;;3.67;2.22;;;;;;;1.44;100.00;96647.44;4979157;28;20299;-73
2022/12/06 10:29:56;;;;;;;5.40;3.25;;;;;;;1.56;100.00;96645.13;4974571;28;20113;-73
2022/12/06 10:32:54;;;;;;;3.38;1.85;;;;;;;1.46;100.00;96649.88;4971437;28;20062;-76
2022/12/06 10:35:54;;;;;;;2.63;1.50;;;;;;;1.42;100.00;96646.81;4973941;28;20061;-73
2022/12/06 10:38:49;;;;;;;3.15;1.70;;;;;;;1.39;100.00;96647.16;4975073;28;20038;-73
2022/12/06 10:41:42;;;;;;;2.50;1.38;;;;;;;1.44;100.00;96647.44;4975784;28;20042;-74
2022/12/06 10:44:39;;;;;;;3.28;1.77;;;;;;;1.56;100.00;96658.31;4968205;28;20438;-74
2022/12/06 10:47:44;;;;;;;2.67;1.50;;;;;;;1.56;100.00;96640.69;4965553;28;20058;-73
2022/12/06 10:50:35;;;;;;;2.33;1.33;;;;;;;1.58;100.00;96635.22;4961091;28;20262;-75
2022/12/06 10:53:27;;;;;;;2.97;1.75;;;;;;;1.64;100.00;96632.63;4965540;28;20070;-75
2022/12/06 10:56:23;;;;;;;2.05;1.10;;;;;;;1.64;100.00;96634.47;4962818;28;20478;-75
2022/12/06 10:59:33;;;;;;;4.15;2.60;;;;;;;1.65;100.00;96630.81;4973457;28;20038;-75
2022/12/06 11:02:33;;;;;;;3.03;1.55;;;;;;;1.71;100.00;96635.31;4970424;28;20716;-75
2022/12/06 11:05:41;;;;;;;3.17;1.70;;;;;;;1.74;100.00;96632.31;4967413;28;20619;-75
2022/12/06 11:08:26;;;;;;;2.90;1.50;;;;;;;1.77;100.00;96633.75;4975881;28;20037;-73
2022/12/06 11:11:17;;;;;;;2.80;1.40;;;;;;;1.73;100.00;96635.16;4975106;28;20544;-75
2022/12/06 11:14:22;;;;;;;2.63;1.50;;;;;;;1.63;100.00;96632.81;4972349;28;20416;-76
2022/12/06 11:17:27;;;;;;;3.13;1.92;;;;;;;1.69;100.00;96629.41;4976074;28;20042;-75
2022/12/06 11:20:37;;;;;;;2.58;1.30;;;;;;;1.75;100.00;96627.84;4972603;28;20165;-73
2022/12/06 11:23:47;;;;;;;4.18;2.22;;;;;;;1.73;100.00;96624.59;4960493;28;20411;-73
2022/12/06 11:26:44;;;;;;;2.87;1.62;;;;;;;1.67;100.00;96616.44;4833276;28;10001332;-73
2022/12/06 11:29:30;;;;;;;2.75;1.58;;;;;;;1.69;100.00;96621.50;4616810;28;10000374;-73
2022/12/06 11:32:18;;;;;;;4.05;2.67;;;;;;;1.71;100.00;96608.94;4941860;28;20050;-75
2022/12/06 11:35:11;;;;;;;2.75;1.70;;;;;;;1.77;100.00;96610.00;4970239;28;20034;-74
2022/12/06 11:38:01;;;;;;;5.13;3.58;;;;;;;1.82;100.00;96607.63;4969133;28;20737;-72
2022/12/06 11:40:49;;;;;;;3.50;2.20;;;;;;;1.88;100.00;96604.25;4973996;28;20060;-73
2022/12/06 11:43:35;;;;;;;3.35;2.08;;;;;;;1.75;100.00;96599.66;4968430;28;20038;-76
2022/12/06 11:46:22;;;;;;;3.05;1.83;;;;;;;1.75;100.00;96604.94;4975922;28;20062;-73
2022/12/06 11:49:20;;;;;;;3.15;1.85;;;;;;;1.67;100.00;96599.78;4964455;28;20419;-75
2022/12/06 11:52:11;;;;;;;3.72;2.17;;;;;;;1.68;100.00;96604.03;4975096;28;20049;-75
2022/12/06 11:55:14;;;;;;;3.28;1.90;;;;;;;1.60;100.00;96606.81;4971352;28;20589;-73
2022/12/06 11:58:07;;;;;;;3.70;2.20;;;;;;;1.67;100.00;96607.69;4975219;28;20119;-72
2022/12/06 12:00:58;;;;;;;3.97;2.28;;;;;;;1.70;100.00;96606.50;4939807;28;20046;-76
2022/12/06 12:03:46;;;;;;;;;;;;;;;1.69;100.00;96608.31;4971926;28;20426;-75
2022/12/06 12:06:32;;;;;;;2.97;1.77;;;;;;;1.69;100.00;96610.94;4973240;28;20290;-74
2022/12/06 12:09:19;;;;;;;3.58;2.35;;;;;;;1.70;100.00;96611.78;4973573;28;20038;-75
2022/12/06 12:12:14;;;;;;;4.35;2.70;;;;;;;1.64;100.00;96611.53;4973441;28;20328;-73
2022/12/06 12:15:00;;;;;;;3.97;2.08;;;;;;;1.65;100.00;96605.25;4973455;28;20060;-74
2022/12/06 12:17:53;;;;;;;2.90;1.63;;;;;;;1.63;100.00;96606.41;4976047;28;20078;-74
2022/12/06 12:20:45;;;;;;;3.63;1.92;;;;;;;1.71;100.00;96608.94;4978109;28;20034;-74
2022/12/06 12:23:32;;;;;;;3.03;2.00;;;;;;;1.74;100.00;96603.28;4979238;28;20041;-74
2022/12/06 12:26:21;;;;;;;2.88;1.70;;;;;;;1.70;100.00;96602.03;4976970;28;20104;-74
2022/12/06 12:29:06;;;;;;;3.10;1.83;;;;;;;1.67;100.00;96607.69;4972495;28;20529;-75
2022/12/06 12:31:59;;;;;;;3.25;2.08;;;;;;;1.71;100.00;96598.38;4972039;28;20043;-75
2022/12/06 12:34:44;;;;;;;3.03;1.95;;;;;;;1.78;100.00;96603.72;4976393;28;20138;-75
2022/12/06 12:37:38;;;;;;;3.15;1.95;;;;;;;1.75;100.00;96601.47;4973969;28;20093;-73
2022/12/06 12:40:28;;;;;;;3.05;1.73;;;;;;;1.73;100.00;96599.03;4971388;28;20964;-75
2022/12/06 12:43:23;;;;;;;2.53;1.30;;;;;;;1.71;100.00;96598.38;4973062;28;20886;-76
2022/12/06 12:46:10;;;;;;;2.17;1.20;;;;;;;1.74;100.00;96586.66;4975963;28;20038;-77
2022/12/06 12:49:19;;;;;;;2.88;1.67;;;;;;;1.69;100.00;96595.13;4974630;28;20040;-75
2022/12/06 12:52:41;;;;;;;2.30;1.42;;;;;;;1.71;100.00;96594.94;4971808;28;20851;-74
2022/12/06 12:55:28;;;;;;;;;;;;;;;1.73;100.00;96587.66;4889146;29;20529;-74
2022/12/06 12:58:14;;;;;;;1.52;0.70;;;;;;;1.72;100.00;96589.47;4972652;28;20024;-74
2022/12/06 13:01:17;;;;;;;3.20;1.80;;;;;;;1.70;100.00;96586.19;4938420;28;20509;-73
2022/12/06 13:04:21;;;;;;;1.90;1.10;;;;;;;1.74;100.00;96584.81;4977427;28;20088;-74
2022/12/06 13:07:24;;;;;;;2.63;1.73;;;;;;;1.78;100.00;96587.88;4976792;28;20406;-75
2022/12/06 13:10:35;;;;;;;2.70;1.60;;;;;;;1.74;100.00;96584.00;4965814;28;20045;-75
2022/12/06 13:13:27;;;;;;;1.67;0.90;;;;;;;1.70;100.00;96588.03;4973342;28;20399;-75
2022/12/06 13:16:41;;;;;;;1.65;0.80;;;;;;;1.77;100.00;96587.06;4963446;28;20553;-76
2022/12/06 13:19:39;;;;;;;2.60;1.50;;;;;;;1.82;100.00;96589.97;4963303;28;20486;-76
2022/12/06 13:22:29;;;;;;;2.35;1.17;;;;;;;1.77;100.00;96573.88;4973093;28;20049;-74
2022/12/06 13:25:17;;;;;;;3.30;2.15;;;;;;;1.78;100.00;96575.50;4974337;28;20050;-74
2022/12/06 13:28:10;;;;;;;2.42;1.48;;;;;;;1.83;100.00;96588.97;4961147;28;20046;-76
2022/12/06 13:31:10;;;;;;;2.40;1.58;;;;;;;1.79;100.00;96585.09;4972406;28;20160;-75
2022/12/06 13:34:01;;;;;;;2.70;1.58;;;;;;;1.81;100.00;96593.63;4974497;28;20058;-76
2022/12/06 13:36:50;;;;;;;3.58;2.40;;;;;;;1.83;100.00;96602.16;4978334;28;20133;-75
2022/12/06 13:39:38;;;;;;;2.38;1.30;;;;;;;1.83;100.00;96594.25;4976123;28;21009;-75
2022/12/06 13:42:36;;;;;;;3.13;1.85;;;;;;;1.83;100.00;96588.16;4971885;28;20571;-75
2022/12/06 13:45:42;;;;;;;2.40;1.30;;;;;;;1.83;100.00;96585.50;4973366;28;20053;-76